This is the latest recevied weather packets stored in our database for station/object BMCB-35. If no packets are shown the sender has not sent any weather packets the latest 10 day(s).
| Time | Temp. | Humidity | Pressure | Rain* | Wind** | Luminosity | Snow |
|---|---|---|---|---|---|---|---|
| 1777489247 | 16.67° C | 26% | 1021.7 hPa | 0 mm | - | 0 W/m² | - |
| 1777488047 | 16.67° C | 25% | 1021.6 hPa | 0 mm | - | 2 W/m² | - |
| 1777487415 | 17.22° C | 25% | 1021.4 hPa | 0 mm | - | 7 W/m² | - |
| 1777486222 | 17.78° C | 24% | 1021.1 hPa | 0 mm | - | 52 W/m² | - |
| 1777483845 | 18.33° C | 24% | 1020.9 hPa | 0 mm | - | 100 W/m² | - |
| 1777481416 | 18.89° C | 24% | 1020.9 hPa | 0 mm | - | 222 W/m² | - |
| 1777480833 | 19.44° C | 24% | 1020.8 hPa | 0 mm | - | 278 W/m² | - |
| 1777479616 | 19.44° C | 24% | 1020.7 hPa | 0 mm | - | 333 W/m² | - |
| 1777478428 | 20° C | 24% | 1020.7 hPa | 0 mm | - | 360 W/m² | - |
| 1777477831 | 20° C | 25% | 1020.6 hPa | 0 mm | - | 412 W/m² | - |
| 1777473005 | 20° C | 25% | 1020.6 hPa | 0 mm | - | 584 W/m² | - |
| 1777471215 | 20.56° C | 29% | 1020.6 hPa | 0 mm | - | 657 W/m² | - |
| 1777470624 | 20° C | 28% | 1020.7 hPa | 0 mm | - | 674 W/m² | - |
| 1777468845 | 20° C | 30% | 1020.8 hPa | 0 mm | - | 697 W/m² | - |
| 1777468223 | 20° C | 31% | 1020.8 hPa | 0 mm | - | 720 W/m² | - |
| 1777467630 | 20° C | 30% | 1020.9 hPa | 0 mm | - | 729 W/m² | - |
| 1777467038 | 20° C | 30% | 1020.9 hPa | 0 mm | - | 729 W/m² | - |
| 1777467032 | 20° C | 30% | 1020.9 hPa | 0 mm | - | 737 W/m² | - |
| 1777464637 | 19.44° C | 32% | 1021 hPa | 0 mm | - | 761 W/m² | - |
| 1777463410 | 19.44° C | 32% | 1021.2 hPa | 0 mm | - | 767 W/m² | - |
| 1777462239 | 18.89° C | 32% | 1021.3 hPa | 0 mm | - | 767 W/m² | - |
| 1777461624 | 18.89° C | 32% | 1021.3 hPa | 0 mm | - | 767 W/m² | - |
| 1777460433 | 18.89° C | 33% | 1021.2 hPa | 0 mm | - | 754 W/m² | - |
| 1777459235 | 18.33° C | 33% | 1021.3 hPa | 0 mm | - | 740 W/m² | - |
| 1777456205 | 17.22° C | 35% | 1021.3 hPa | 0 mm | - | 693 W/m² | - |
* Rain latest hour (hover to see other rain measurements)
** Current wind speed in m/s (hover to see current wind gust speed)